Home > Products > Valid Products > TAF

000
FTUS46 KLOX 241700
TAFPMD
TAF
KPMD 241736Z 2418/2518 VRB05KT P6SM SKC
     FM242100 22008KT P6SM SKC
     FM250500 24006KT P6SM SKC=



000
FTUS46 KLOX 241700
TAFWJF
TAF
KWJF 241736Z 2418/2518 VRB05KT P6SM SKC
     FM242100 22010KT P6SM SKC
     FM250400 25006KT P6SM SKC
     FM251000 26009KT P6SM SKC=



000
FTUS46 KLOX 241700
TAFSMX
TAF
KSMX 241736Z 2418/2518 VRB04KT 5SM HZ SCT006
     FM242100 29007KT P6SM SCT200
     FM250300 VRB03KT 5SM BR OVC005
     FM250500 VRB03KT 1SM BR OVC001
     FM250900 VRB03KT 1/2SM FG OVC001
     FM251600 18004KT 2SM BR OVC005=



000
FTUS46 KLOX 241700
TAFPRB
TAF
KPRB 241736Z 2418/2518 VRB03KT P6SM SKC
     FM242100 22005KT P6SM SKC
     FM242300 22008KT P6SM SKC
     FM250300 25005KT P6SM SCT200
     FM250900 VRB03KT P6SM BKN120
     FM251400 17003KT P6SM BKN015 OVC100=



000
FTUS46 KLOX 241700
TAFSBA
TAF
KSBA 241736Z 2418/2518 VRB03KT P6SM SKC
     FM242100 24007KT P6SM FEW250
     FM250200 VRB03KT P6SM SCT200
     FM251200 VRB03KT P6SM BKN150=



000
FTUS46 KLOX 241700
TAFVNY
TAF
KVNY 241736Z 2418/2518 VRB03KT P6SM SKC
     FM242100 16007KT P6SM SKC
     FM250300 VRB03KT P6SM SKC
     FM250800 VRB03KT P6SM SCT250=



000
FTUS46 KLOX 241700
TAFBUR
TAF
KBUR 241736Z 2418/2518 VRB03KT P6SM SKC
     FM242100 17008KT P6SM SKC
     FM250300 14004KT P6SM SKC
     FM250800 VRB03KT P6SM SCT250=



000
FTUS46 KLOX 241700
TAFLGB
TAF
KLGB 241736Z 2418/2518 VRB03KT P6SM SKC
     FM242200 25006KT P6SM SKC
     FM250100 30006KT P6SM SKC
     FM250400 VRB03KT P6SM SKC
     FM250800 VRB03KT 3SM BR BKN010
     FM251500 VRB03KT 5SM HZ OVC015=



000
FTUS46 KLOX 241700
TAFLAX
TAF
KLAX 241736Z 2418/2524 13005KT P6SM FEW250
     FM242100 26010KT P6SM SKC
     FM250300 VRB03KT P6SM FEW100
     FM250800 VRB03KT 4SM BR BKN007
     FM251500 VRB03KT 5SM BR OVC010
     FM251800 24006KT 5SM HZ OVC012=



000
FTUS46 KLOX 241700
TAFSBP
TAF
KSBP 241736Z 2418/2518 VRB03KT 3SM BR OVC003
     FM241900 VRB05KT P6SM SCT005
     FM242100 28007KT P6SM SCT200
     FM250400 VRB03KT 5SM BR OVC009
     FM251000 VRB03KT 1SM BR OVC001
     FM251600 18004KT 4SM BR OVC007=



000
FTUS46 KLOX 241600 AAB
TAFSBP
TAF AMD
KSBP 241604Z 2416/2512 VRB03KT 1/4SM FG VV002
     FM241700 VRB03KT P6SM SCT200
     FM242000 30010KT P6SM SCT200
     FM250400 VRB03KT 5SM BR OVC008=



000
FTUS46 KLOX 241500 AAA
TAFSMX
TAF AMD
KSMX 241502Z 2415/2512 VRB03KT 1/4SM FG VV002
     FM241630 VRB03KT 2SM BR OVC005
     FM241800 22004KT P6SM SCT200
     FM242100 30010KT P6SM SCT200
     FM250300 VRB03KT 5SM BR OVC008=



000
FTUS46 KLOX 241500 AAA
TAFSBP
TAF AMD
KSBP 241501Z 2415/2512 VRB03KT 1/4SM FG VV002
     FM241600 VRB03KT 2SM BR BKN005
     FM241700 VRB03KT P6SM SCT200
     FM242000 30010KT P6SM SCT200
     FM250400 VRB03KT 5SM BR OVC008=



000
FTUS46 KLOX 241400 AAA
TAFLAX
TAF AMD
KLAX 241442Z 2415/2518 VRB03KT P6SM FEW200
     FM241800 18004KT 6SM HZ SKC
     FM242200 25010KT P6SM SKC
     FM250300 VRB03KT P6SM SKC
     FM250800 VRB03KT 2SM BR OVC003
     FM251500 VRB03KT 5SM BR BKN007=



000
FTUS46 KLOX 241400 AAA
TAFLAX
TAF AMD
KLAX 241442Z 2415/2518 VRB03KT P6SM FEW200
     FM241800 18004KT 6SM HZ SKC
     FM242200 25010KT P6SM SKC
     FM250300 VRB03KT P6SM SKC
     FM250800 VRB03KT 2SM BR OVC003
     FM251500 VRB03KT 5SM BR BKN007=



000
FTUS46 KLOX 241100
TAFSMX
TAF
KSMX 241120Z 2412/2512 VRB03KT 1/4SM FG VV002
     FM241500 VRB03KT 2SM BR OVC005
     FM241700 22006KT P6SM SCT200
     FM242100 30010KT P6SM SCT200
     FM250300 VRB03KT 5SM BR OVC008=



000
FTUS46 KLOX 241100
TAFPRB
TAF
KPRB 241120Z 2412/2512 VRB03KT P6SM SKC
     FM242100 22010KT P6SM SKC
     FM250300 VRB03KT P6SM SCT200
     FM250900 VRB03KT P6SM BKN150=



000
FTUS46 KLOX 241100
TAFLGB
TAF
KLGB 241120Z 2412/2512 VRB03KT P6SM SCT004
     FM242000 18007KT P6SM SKC
     FM250000 28008KT P6SM SKC
     FM250400 VRB03KT P6SM SKC
     FM250800 VRB03KT 3SM BR BKN005=



000
FTUS46 KLOX 241100
TAFBUR
TAF
KBUR 241120Z 2412/2512 VRB03KT P6SM SKC
     FM242100 17008KT P6SM SKC
     FM250300 VRB03KT P6SM SKC=



000
FTUS46 KLOX 241100
TAFSBP
TAF
KSBP 241120Z 2412/2512 VRB03KT 1/4SM FG VV002
     FM241500 VRB03KT 2SM BR BKN005
     FM241700 VRB03KT P6SM SCT200
     FM242000 30010KT P6SM SCT200
     FM250400 VRB03KT 5SM BR OVC008=



000
FTUS46 KLOX 241100
TAFSBA
TAF
KSBA 241120Z 2412/2512 VRB03KT P6SM SKC
     FM241800 16006KT P6SM SKC
     FM242100 23008KT P6SM SCT200
     FM250200 VRB03KT P6SM SCT200=



000
FTUS46 KLOX 241100
TAFVNY
TAF
KVNY 241120Z 2412/2512 VRB03KT P6SM SKC
     FM242100 14008KT P6SM SKC
     FM250300 VRB03KT P6SM SKC=



000
FTUS46 KLOX 241100
TAFPMD
TAF
KPMD 241120Z 2412/2512 VRB03KT P6SM SKC
     FM242100 23012KT P6SM SKC
     FM250500 VRB03KT P6SM SKC=



000
FTUS46 KLOX 241100
TAFLAX
TAF
KLAX 241120Z 2412/2518 VRB03KT P6SM SKC
     FM242200 25010KT P6SM SKC
     FM250300 VRB03KT P6SM SKC
     FM250800 VRB03KT 2SM BR OVC003
     FM251500 VRB03KT 5SM BR BKN007=



000
FTUS46 KLOX 241100
TAFWJF
TAF
KWJF 241120Z 2412/2512 VRB03KT P6SM SKC
     FM242100 23012KT P6SM SKC
     FM250500 VRB03KT P6SM SKC=



000
FTUS46 KLOX 241100 AAB
TAFSBP
TAF AMD
KSBP 241103Z 2411/2506 29003KT 1/4SM FG VV002
     FM241400 VRB03KT 2SM BR BKN005
     FM241700 VRB03KT P6SM SCT200
     FM242000 29010KT P6SM SCT200
     FM250300 VRB03KT P6SM BKN012=



000
FTUS46 KLOX 241100 AAB
TAFSMX
TAF AMD
KSMX 241103Z 2411/2506 VRB03KT 1/4SM FG VV002
     FM241500 VRB03KT 2SM BR OVC005
     FM241700 22005KT P6SM SCT200
     FM242100 29010KT P6SM SCT200
     FM250300 VRB03KT 5SM BR OVC007=



000
FTUS46 KLOX 241100 AAA
TAFLGB
TAF AMD
KLGB 241102Z 2411/2506 VRB03KT 2SM BR BKN003
     FM241500 VRB03KT P6SM SKC
     FM242000 18007KT P6SM SKC
     FM250000 28008KT P6SM SKC
     FM250400 VRB03KT P6SM SKC=



000
FTUS46 KLOX 240900 AAA
TAFLAX
TAF AMD
KLAX 240906Z 2409/2512 VRB03KT 3SM BR SCT001
     FM241500 VRB03KT P6SM SKC
     FM242200 25010KT P6SM SKC
     FM250300 VRB03KT P6SM SKC
     FM250900 VRB03KT 2SM BR BKN003=



000
FTUS46 KLOX 240800 AAA
TAFSMX
TAF AMD
KSMX 240809Z 2408/2506 VRB03KT 1/4SM FG VV002
     FM241000 VRB03KT 2SM BR OVC002
     FM241500 VRB03KT 4SM BR OVC005
     FM241700 22005KT P6SM SCT200
     FM242100 29010KT P6SM SCT200
     FM250300 VRB03KT 5SM BR OVC007=



000
FTUS46 KLOX 240800 AAA
TAFSMX
TAF AMD
KSMX 240809Z 2408/2506 VRB03KT 1/4SM FG VV002
     FM241000 VRB03KT 2SM BR OVC002
     FM241500 VRB03KT 4SM BR OVC005
     FM241700 22005KT P6SM SCT200
     FM242100 29010KT P6SM SCT200
     FM250300 VRB03KT 5SM BR OVC007=



000
FTUS46 KLOX 240800 AAA
TAFSBP
TAF AMD
KSBP 240808Z 2408/2506 29003KT 1/4SM FG VV002
     FM241000 VRB03KT 2SM BR OVC003
     FM241400 VRB03KT 4SM BR BKN005
     FM241700 VRB03KT P6SM SCT200
     FM242000 29010KT P6SM SCT200
     FM250300 VRB03KT P6SM BKN012=



000
FTUS46 KLOX 240800 AAA
TAFSBP
TAF AMD
KSBP 240808Z 2408/2506 29003KT 1/4SM FG VV002
     FM241000 VRB03KT 2SM BR OVC003
     FM241400 VRB03KT 4SM BR BKN005
     FM241700 VRB03KT P6SM SCT200
     FM242000 29010KT P6SM SCT200
     FM250300 VRB03KT P6SM BKN012=



000
FTUS46 KLOX 240500
TAFVNY
TAF
KVNY 240530Z 2406/2506 VRB03KT P6SM SKC
     FM242100 14008KT P6SM SKC
     FM250300 VRB03KT P6SM SKC=



000
FTUS46 KLOX 240500
TAFWJF
TAF
KWJF 240530Z 2406/2506 28007KT P6SM SKC
     FM240800 VRB03KT P6SM SKC
     FM242100 23012KT P6SM SKC
     FM250500 VRB03KT P6SM SKC=



000
FTUS46 KLOX 240500
TAFLAX
TAF
KLAX 240530Z 2406/2512 VRB03KT P6SM SKC
     FM242200 25010KT P6SM SKC
     FM250300 VRB03KT P6SM SKC
     FM250900 VRB03KT 2SM BR BKN003=



000
FTUS46 KLOX 240500
TAFSMX
TAF
KSMX 240530Z 2406/2506 VRB03KT P6SM SKC
     FM240700 VRB03KT 2SM BR OVC002
     FM241500 VRB03KT 4SM BR OVC005
     FM241700 22005KT P6SM SCT200
     FM242100 29010KT P6SM SCT200
     FM250300 VRB03KT 5SM BR OVC007=



000
FTUS46 KLOX 240500
TAFPRB
TAF
KPRB 240530Z 2406/2506 VRB03KT P6SM SKC
     FM242100 22010KT P6SM SKC
     FM250300 VRB03KT P6SM SCT200=



000
FTUS46 KLOX 240500
TAFLGB
TAF
KLGB 240530Z 2406/2506 VRB03KT P6SM SKC
     FM242000 18007KT P6SM SKC
     FM250000 28008KT P6SM SKC
     FM250400 VRB03KT P6SM SKC=



000
FTUS46 KLOX 240500
TAFBUR
TAF
KBUR 240530Z 2406/2506 VRB03KT P6SM SKC
     FM242100 17008KT P6SM SKC
     FM250300 VRB03KT P6SM SKC=



000
FTUS46 KLOX 240500
TAFSBP
TAF
KSBP 240530Z 2406/2506 29003KT 1/4SM FG VV002
     FM240800 VRB03KT 2SM BR OVC003
     FM241300 VRB03KT 4SM BR BKN005
     FM241700 VRB03KT P6SM SCT200
     FM242000 29010KT P6SM SCT200
     FM250300 VRB03KT P6SM BKN012=



000
FTUS46 KLOX 240500
TAFSBA
TAF
KSBA 240530Z 2406/2506 VRB03KT P6SM SKC
     FM241800 16006KT P6SM SKC
     FM242100 23008KT P6SM SCT200
     FM250200 VRB03KT P6SM SCT200=



000
FTUS46 KLOX 240500
TAFPMD
TAF
KPMD 240530Z 2406/2506 VRB03KT P6SM SKC
     FM242100 23012KT P6SM SKC
     FM250500 VRB03KT P6SM SKC=



000
FTUS46 KLOX 240500 AAA
TAFSBP
TAF AMD
KSBP 240503Z 2405/2424 VRB03KT 1/2SM FG VV001
     FM240800 VRB03KT 2SM BR OVC003
     FM241300 09003KT 4SM BR SCT003
     FM241700 15004KT P6SM SCT250
     FM242000 24011KT P6SM SCT250=



000
FTUS46 KLOX 240300 AAA
TAFLAX
TAF AMD
KLAX 240312Z 2403/2506 25005KT P6SM SKC
     FM240800 VRB03KT P6SM SKC
     FM241400 08005KT P6SM SKC
     FM242000 23009KT P6SM SKC
     FM250300 23004KT P6SM SKC=



000
FTUS46 KLOX 240300 AAA
TAFLAX
TAF AMD
KLAX 240312Z 2403/2506 25005KT P6SM SKC
     FM240800 VRB03KT P6SM SKC
     FM241400 08005KT P6SM SKC
     FM242000 23009KT P6SM SKC
     FM250300 23004KT P6SM SKC=



000
FTUS46 KLOX 232300
TAFPMD
TAF
KPMD 232336Z 2400/2424 24012KT P6SM SKC
     FM240200 25008KT P6SM SKC
     FM240500 25005KT P6SM SKC
     FM240900 VRB03KT P6SM SKC
     FM242100 20008KT P6SM SKC
     FM242300 22012KT P6SM SKC=



000
FTUS46 KLOX 232300
TAFBUR
TAF
KBUR 232336Z 2400/2424 17006KT P6SM SKC
     FM240300 VRB03KT P6SM SKC
     FM242100 16009KT P6SM SKC=



000
FTUS46 KLOX 232300
TAFSBA
TAF
KSBA 232336Z 2400/2424 24006KT P6SM SKC
     FM240200 VRB03KT P6SM SKC
     FM241800 14006KT P6SM SCT250
     FM242100 19008KT P6SM SCT250=



000
FTUS46 KLOX 232300
TAFLAX
TAF
KLAX 232336Z 2400/2506 26009KT P6SM SKC
     FM240300 25006KT P6SM SKC
     FM240800 VRB03KT P6SM SKC
     FM241400 08005KT P6SM SKC
     FM242000 23009KT P6SM SKC
     FM250300 23004KT P6SM SKC=



000
FTUS46 KLOX 232300
TAFSBP
TAF
KSBP 232336Z 2400/2424 32016KT P6SM SKC
     FM240300 30008KT P6SM SKC
     FM240500 VRB03KT P6SM SKC
     FM241300 09003KT 4SM BR SCT003
     FM241700 15004KT P6SM SCT250
     FM242000 24011KT P6SM SCT250=



000
FTUS46 KLOX 232300
TAFVNY
TAF
KVNY 232336Z 2400/2424 13006KT P6SM SKC
     FM240300 VRB03KT P6SM SKC
     FM242100 15008KT P6SM SKC=



000
FTUS46 KLOX 232300
TAFPRB
TAF
KPRB 232336Z 2400/2424 10005KT P6SM SKC
     FM240500 VRB03KT P6SM SKC
     FM242100 21010KT P6SM SCT250=



000
FTUS46 KLOX 232300
TAFWJF
TAF
KWJF 232336Z 2400/2424 24014KT P6SM SKC
     FM240200 26010KT P6SM SKC
     FM240500 27007KT P6SM SKC
     FM240900 VRB03KT P6SM SKC
     FM242100 18008KT P6SM SKC
     FM242300 20012KT P6SM SKC=



000
FTUS46 KLOX 232300
TAFSMX
TAF
KSMX 232336Z 2400/2424 32011KT P6SM SKC
     FM240300 30008KT P6SM SKC
     FM240500 VRB03KT P6SM SKC
     FM241000 VRB03KT 2SM BR OVC002
     FM241500 VRB03KT 4SM BR OVC004
     FM241700 22005KT P6SM SCT250
     FM242100 27010KT P6SM SCT250=



000
FTUS46 KLOX 232300
TAFLGB
TAF
KLGB 232336Z 2400/2424 30008KT P6SM SKC
     FM240500 VRB03KT P6SM SKC
     FM242000 18007KT P6SM SKC=



000
FTUS46 KLOX 232000 AAA
TAFLAX
TAF AMD
KLAX 232040Z 2321/2424 27012KT P6SM SCT250
     FM240300 25006KT P6SM SKC
     FM240800 VRB03KT P6SM SKC
     FM241700 26008KT P6SM SKC=



000
FTUS46 KLOX 231700
TAFSBP
TAF
KSBP 231720Z 2318/2418 00000KT P6SM SKC
     FM232000 30015KT P6SM SKC
     FM240300 30008KT P6SM SKC
     FM240500 VRB03KT P6SM SKC=



000
FTUS46 KLOX 231700
TAFLAX
TAF
KLAX 231720Z 2318/2424 00000KT P6SM SCT250
     FM231900 26012KT P6SM SCT250
     FM240300 25006KT P6SM SKC
     FM240800 VRB03KT P6SM SKC
     FM241700 26008KT P6SM SKC=



000
FTUS46 KLOX 231700
TAFPRB
TAF
KPRB 231720Z 2318/2418 VRB03KT P6SM SKC
     FM232200 10008KT P6SM SKC
     FM240400 VRB03KT P6SM SKC=



000
FTUS46 KLOX 231700
TAFPMD
TAF
KPMD 231720Z 2318/2418 00000KT P6SM SCT250
     FM232100 26012KT P6SM SCT250
     FM240300 VRB03KT P6SM SKC=



000
FTUS46 KLOX 231700
TAFSMX
TAF
KSMX 231720Z 2318/2418 00000KT P6SM SKC
     FM232000 30015KT P6SM SKC
     FM240300 30008KT P6SM SKC
     FM240500 VRB03KT P6SM SKC=



000
FTUS46 KLOX 231700
TAFWJF
TAF
KWJF 231720Z 2318/2418 00000KT P6SM SCT250
     FM232100 26012KT P6SM SCT250
     FM240300 VRB03KT P6SM SKC=



000
FTUS46 KLOX 231700
TAFVNY
TAF
KVNY 231720Z 2318/2418 00000KT P6SM SCT250
     FM232000 14008KT P6SM SCT250
     FM240400 VRB03KT P6SM SKC=



000
FTUS46 KLOX 231700
TAFBUR
TAF
KBUR 231720Z 2318/2418 00000KT P6SM SCT250
     FM232000 17008KT P6SM SCT250
     FM240400 VRB03KT P6SM SKC=



000
FTUS46 KLOX 231700
TAFSBA
TAF
KSBA 231720Z 2318/2418 00000KT P6SM SKC
     FM232000 24007KT P6SM SKC
     FM240200 VRB03KT P6SM SKC=



000
FTUS46 KLOX 231700
TAFLGB
TAF
KLGB 231720Z 2318/2418 00000KT 6SM HZ SCT250
     FM231900 18008KT P6SM SCT250
     FM240000 28008KT P6SM SKC
     FM240400 VRB03KT P6SM SKC=



000
FTUS46 KLOX 231400 AAA
TAFLAX
TAF AMD
KLAX 231432Z 2315/2418 00000KT P6SM FEW250
     FM231900 26012KT P6SM SKC
     FM240300 25006KT P6SM SKC
     FM240800 VRB03KT P6SM SKC
     FM241700 26008KT P6SM SKC=



000
FTUS46 KLOX 231400 AAA
TAFLAX
TAF AMD
KLAX 231432Z 2315/2418 00000KT P6SM FEW250
     FM231900 26012KT P6SM SKC
     FM240300 25006KT P6SM SKC
     FM240800 VRB03KT P6SM SKC
     FM241700 26008KT P6SM SKC=



000
FTUS46 KLOX 231100
TAFBUR
TAF
KBUR 231124Z 2312/2412 VRB03KT P6SM SKC
     FM232000 17008KT P6SM SKC
     FM240400 VRB03KT P6SM SKC=



000
FTUS46 KLOX 231100
TAFLGB
TAF
KLGB 231124Z 2312/2412 VRB03KT P6SM SKC
     FM231900 18008KT P6SM SKC
     FM240000 28008KT P6SM SKC
     FM240400 VRB03KT P6SM SKC=



000
FTUS46 KLOX 231100
TAFSBP
TAF
KSBP 231124Z 2312/2412 VRB03KT P6SM SKC
     FM231800 30008KT P6SM SKC
     FM232000 30015KT P6SM SKC
     FM240300 30008KT P6SM SKC
     FM240500 VRB03KT P6SM SKC=



000
FTUS46 KLOX 231100
TAFWJF
TAF
KWJF 231124Z 2312/2412 VRB03KT P6SM SKC
     FM232100 26012KT P6SM SKC
     FM240300 VRB03KT P6SM SKC=



000
FTUS46 KLOX 231100
TAFPMD
TAF
KPMD 231124Z 2312/2412 VRB03KT P6SM SKC
     FM232100 26012KT P6SM SKC
     FM240300 VRB03KT P6SM SKC=



000
FTUS46 KLOX 231100
TAFSMX
TAF
KSMX 231124Z 2312/2412 VRB03KT P6SM SKC
     FM231800 30008KT P6SM SKC
     FM232000 30015KT P6SM SKC
     FM240300 30008KT P6SM SKC
     FM240500 VRB03KT P6SM SKC=



000
FTUS46 KLOX 231100
TAFLAX
TAF
KLAX 231124Z 2312/2418 VRB03KT P6SM SKC
     FM231900 26012KT P6SM SKC
     FM240300 25006KT P6SM SKC
     FM240800 VRB03KT P6SM SKC
     FM241700 26008KT P6SM SKC=



000
FTUS46 KLOX 231100
TAFSBA
TAF
KSBA 231124Z 2312/2412 VRB03KT P6SM SKC
     FM231600 17006KT P6SM SKC
     FM232000 24007KT P6SM SKC
     FM240200 VRB03KT P6SM SKC=



000
FTUS46 KLOX 231100
TAFVNY
TAF
KVNY 231124Z 2312/2412 VRB03KT P6SM SKC
     FM232000 14008KT P6SM SKC
     FM240400 VRB03KT P6SM SKC=



000
FTUS46 KLOX 231100
TAFPRB
TAF
KPRB 231124Z 2312/2412 VRB03KT P6SM SKC
     FM232200 10008KT P6SM SKC
     FM240400 VRB03KT P6SM SKC=



000
FTUS46 KLOX 230800 AAA
TAFLAX
TAF AMD
KLAX 230851Z 2309/2412 00000KT P6SM FEW250
     FM231900 26012KT P6SM SKC
     FM240300 25006KT P6SM SKC
     FM240800 VRB03KT P6SM SKC=



000
FTUS46 KLOX 230500
TAFSBA
TAF
KSBA 230525Z 2306/2406 VRB03KT P6SM SKC
     FM231600 17006KT P6SM SKC
     FM232000 24007KT P6SM SKC
     FM240200 VRB03KT P6SM SKC=



000
FTUS46 KLOX 230500
TAFPMD
TAF
KPMD 230525Z 2306/2406 VRB03KT P6SM SKC
     FM232100 26012KT P6SM SKC
     FM240300 VRB03KT P6SM SKC=



000
FTUS46 KLOX 230500
TAFLAX
TAF
KLAX 230525Z 2306/2412 VRB03KT P6SM SKC
     FM231900 26012KT P6SM SKC
     FM240300 25006KT P6SM SKC
     FM240800 VRB03KT P6SM SKC=



000
FTUS46 KLOX 230500
TAFSBP
TAF
KSBP 230525Z 2306/2406 VRB03KT P6SM SCT250
     FM231800 30006KT P6SM SKC
     FM232100 30012KT P6SM SKC
     FM240300 VRB03KT P6SM SKC=



000
FTUS46 KLOX 230500
TAFSMX
TAF
KSMX 230525Z 2306/2406 VRB03KT P6SM SCT250
     FM231800 30006KT P6SM SKC
     FM232100 30012KT P6SM SKC
     FM240300 VRB03KT P6SM SKC=



000
FTUS46 KLOX 230500
TAFBUR
TAF
KBUR 230525Z 2306/2406 VRB03KT P6SM SKC
     FM232000 17008KT P6SM SKC
     FM240400 VRB03KT P6SM SKC=



000
FTUS46 KLOX 230500
TAFVNY
TAF
KVNY 230525Z 2306/2406 VRB03KT P6SM SKC
     FM232000 14008KT P6SM SKC
     FM240400 VRB03KT P6SM SKC=



000
FTUS46 KLOX 230500
TAFLGB
TAF
KLGB 230525Z 2306/2406 VRB03KT P6SM SKC
     FM231900 18008KT P6SM SKC
     FM240000 28008KT P6SM SKC
     FM240400 VRB03KT P6SM SKC=



000
FTUS46 KLOX 230500
TAFPRB
TAF
KPRB 230525Z 2306/2406 VRB03KT P6SM SCT250
     FM232200 10008KT P6SM SKC
     FM240400 VRB03KT P6SM SKC=



000
FTUS46 KLOX 230500
TAFWJF
TAF
KWJF 230525Z 2306/2406 VRB03KT P6SM SKC
     FM232100 26012KT P6SM SKC
     FM240300 VRB03KT P6SM SKC=



000
FTUS46 KLOX 222300
TAFLAX
TAF
KLAX 222339Z 2300/2406 27011KT P6SM SCT250
     FM230400 VRB03KT P6SM SCT250
     FM231200 VRB03KT 5SM BR SCT006
     FM231600 VRB03KT 6SM HZ SKC
     FM232000 26011KT P6SM SKC
     FM240300 25006KT P6SM SKC=



000
FTUS46 KLOX 222300
TAFSBP
TAF
KSBP 222339Z 2300/2324 31017KT P6SM SCT250
     FM230200 32010KT P6SM SCT250
     FM230600 VRB03KT P6SM SCT250
     FM231900 30006KT P6SM SKC
     FM232100 30012KT P6SM SKC=



000
FTUS46 KLOX 222300
TAFPMD
TAF
KPMD 222339Z 2300/2324 VRB05KT P6SM SCT250
     FM230200 24008KT P6SM SCT250
     FM230500 VRB03KT P6SM SCT250
     FM232100 27007KT P6SM SKC
     FM232300 25011KT P6SM SKC=



000
FTUS46 KLOX 222300
TAFBUR
TAF
KBUR 222339Z 2300/2324 17007KT P6SM SCT250
     FM230200 VRB03KT P6SM SCT250
     FM232100 17007KT P6SM SKC=



000
FTUS46 KLOX 222300
TAFSBA
TAF
KSBA 222339Z 2300/2324 24008KT P6SM SCT250
     FM230200 VRB03KT P6SM SCT250
     FM231700 17005KT P6SM SKC
     FM232000 21006KT P6SM SKC
     FM232200 25007KT P6SM SKC=



000
FTUS46 KLOX 222300
TAFVNY
TAF
KVNY 222339Z 2300/2324 17009KT P6SM SCT250
     FM230200 VRB03KT P6SM SCT250
     FM232100 16007KT P6SM SKC=



000
FTUS46 KLOX 222300
TAFPRB
TAF
KPRB 222339Z 2300/2324 34008KT P6SM SCT250
     FM230700 VRB03KT P6SM SCT250
     FM232300 21008KT P6SM SKC=



000
FTUS46 KLOX 222300
TAFSMX
TAF
KSMX 222339Z 2300/2324 30015KT P6SM SCT250
     FM230200 30010KT P6SM SCT250
     FM230500 VRB03KT P6SM SCT250
     FM231900 30006KT P6SM SKC
     FM232100 30012KT P6SM SKC=



000
FTUS46 KLOX 222300
TAFLGB
TAF
KLGB 222339Z 2300/2324 31008KT P6SM SCT250
     FM230500 VRB03KT P6SM SCT250
     FM231100 VRB03KT 6SM BR BKN005
     FM231500 VRB03KT 6SM HZ SCT006
     FM231700 VRB03KT P6SM SKC
     FM232000 20007KT P6SM SKC
     FM232300 30008KT P6SM SKC=



000
FTUS46 KLOX 222300
TAFWJF
TAF
KWJF 222339Z 2300/2324 VRB05KT P6SM SCT250
     FM230200 28008KT P6SM SCT250
     FM231100 VRB03KT P6SM SCT250
     FM232100 22008KT P6SM SKC
     FM232300 23012KT P6SM SKC=



000
FTUS46 KLOX 222100 AAA
TAFSBP
TAF AMD
KSBP 222124Z 2221/2318 32014G22KT P6SM SKC
     FM230200 32010KT P6SM SKC
     FM230600 VRB03KT P6SM SKC=



000
FTUS46 KLOX 222000 AAA
TAFLAX
TAF AMD
KLAX 222050Z 2221/2324 27010KT P6SM SCT250
     FM230400 VRB03KT P6SM SKC
     FM231200 VRB03KT 5SM BR SCT006
     FM231600 VRB03KT 6SM HZ SKC
     FM232000 26010KT P6SM SKC=



000
FTUS46 KLOX 222000 AAA
TAFSMX
TAF AMD
KSMX 222026Z 2220/2318 29015KT P6SM FEW200
     FM230200 30010KT P6SM SKC
     FM230500 VRB03KT P6SM SKC=



000
FTUS46 KLOX 222000 AAA
TAFSMX
TAF AMD
KSMX 222026Z 2220/2318 29015KT P6SM FEW200
     FM230200 30010KT P6SM SKC
     FM230500 VRB03KT P6SM SKC=



000
FTUS46 KLOX 221700
TAFSMX
TAF
KSMX 221738Z 2218/2318 36004KT P6SM SCT200
     FM222000 36010KT P6SM SCT200
     FM222200 32014G20KT P6SM SKC
     FM230200 30010KT P6SM SKC
     FM230500 VRB03KT P6SM SKC=



000
FTUS46 KLOX 221700
TAFLGB
TAF
KLGB 221738Z 2218/2318 00000KT 6SM HZ SKC
     FM222000 19007KT P6SM SKC
     FM222300 29008KT P6SM SKC
     FM230300 VRB03KT P6SM SKC
     FM231100 VRB03KT P6SM BKN008=



000
FTUS46 KLOX 221700
TAFLAX
TAF
KLAX 221738Z 2218/2324 11005KT P6SM SCT250
     FM221900 26010KT P6SM SKC
     FM230400 VRB03KT P6SM SKC
     FM231200 VRB03KT 5SM BR SCT006
     FM231600 VRB03KT 6SM HZ SKC
     FM232000 26010KT P6SM SKC=



000
FTUS46 KLOX 221700
TAFSMX
TAF
KSMX 221738Z 2218/2318 36004KT P6SM SCT200
     FM222000 36010KT P6SM SCT200
     FM222200 32014G20KT P6SM SKC
     FM230200 30010KT P6SM SKC
     FM230500 VRB03KT P6SM SKC=



000
FTUS46 KLOX 221700
TAFVNY
TAF
KVNY 221738Z 2218/2318 00000KT P6SM SKC
     FM222100 15007KT P6SM SKC
     FM230200 VRB03KT P6SM SKC=



000
FTUS46 KLOX 221700
TAFPMD
TAF
KPMD 221738Z 2218/2318 04003KT P6SM SKC
     FM221900 04006KT P6SM SKC
     FM222300 31012KT P6SM SKC
     FM230500 VRB03KT P6SM SKC=



000
FTUS46 KLOX 221700
TAFVNY
TAF
KVNY 221738Z 2218/2318 00000KT P6SM SKC
     FM222100 15007KT P6SM SKC
     FM230200 VRB03KT P6SM SKC=



000
FTUS46 KLOX 221700
TAFLGB
TAF
KLGB 221738Z 2218/2318 00000KT 6SM HZ SKC
     FM222000 19007KT P6SM SKC
     FM222300 29008KT P6SM SKC
     FM230300 VRB03KT P6SM SKC
     FM231100 VRB03KT P6SM BKN008=



000
FTUS46 KLOX 221700
TAFPRB
TAF
KPRB 221738Z 2218/2318 33004KT P6SM SKC
     FM222200 10008KT P6SM SKC
     FM230200 32008KT P6SM SKC
     FM230700 VRB03KT P6SM SKC=



000
FTUS46 KLOX 221700
TAFLAX
TAF
KLAX 221738Z 2218/2324 11005KT P6SM SCT250
     FM221900 26010KT P6SM SKC
     FM230400 VRB03KT P6SM SKC
     FM231200 VRB03KT 5SM BR SCT006
     FM231600 VRB03KT 6SM HZ SKC
     FM232000 26010KT P6SM SKC=



000
FTUS46 KLOX 221700
TAFWJF
TAF
KWJF 221738Z 2218/2318 00000KT P6SM SKC
     FM221900 06006KT P6SM SKC
     FM222300 29014KT P6SM SKC
     FM230500 30008KT P6SM SKC=



000
FTUS46 KLOX 221700
TAFSBA
TAF
KSBA 221738Z 2218/2318 16007KT P6SM SKC
     FM222300 24008KT P6SM SKC
     FM230200 VRB03KT P6SM SKC=



000
FTUS46 KLOX 221700
TAFSBP
TAF
KSBP 221738Z 2218/2318 25003KT P6SM SCT200
     FM222000 34008KT P6SM SCT200
     FM222200 32014G22KT P6SM SKC
     FM230200 32010KT P6SM SKC
     FM230600 VRB03KT P6SM SKC=



000
FTUS46 KLOX 221700
TAFBUR
TAF
KBUR 221738Z 2218/2318 09003KT P6SM SKC
     FM222000 17008KT P6SM SKC
     FM230200 VRB03KT P6SM SKC=



000
FTUS46 KLOX 221700
TAFSBA
TAF
KSBA 221738Z 2218/2318 16007KT P6SM SKC
     FM222300 24008KT P6SM SKC
     FM230200 VRB03KT P6SM SKC=



000
FTUS46 KLOX 221700
TAFPRB
TAF
KPRB 221738Z 2218/2318 33004KT P6SM SKC
     FM222200 10008KT P6SM SKC
     FM230200 32008KT P6SM SKC
     FM230700 VRB03KT P6SM SKC=



000
FTUS46 KLOX 221700
TAFWJF
TAF
KWJF 221738Z 2218/2318 00000KT P6SM SKC
     FM221900 06006KT P6SM SKC
     FM222300 29014KT P6SM SKC
     FM230500 30008KT P6SM SKC=



000
FTUS46 KLOX 221700
TAFPMD
TAF
KPMD 221738Z 2218/2318 04003KT P6SM SKC
     FM221900 04006KT P6SM SKC
     FM222300 31012KT P6SM SKC
     FM230500 VRB03KT P6SM SKC=



000
FTUS46 KLOX 221700
TAFSBP
TAF
KSBP 221738Z 2218/2318 25003KT P6SM SCT200
     FM222000 34008KT P6SM SCT200
     FM222200 32014G22KT P6SM SKC
     FM230200 32010KT P6SM SKC
     FM230600 VRB03KT P6SM SKC=



000
FTUS46 KLOX 221700
TAFBUR
TAF
KBUR 221738Z 2218/2318 09003KT P6SM SKC
     FM222000 17008KT P6SM SKC
     FM230200 VRB03KT P6SM SKC=



000
FTUS46 KLOX 221500 AAA
TAFLAX
TAF AMD
KLAX 221509Z 2215/2318 13004KT P6SM SKC
     FM221900 26010KT P6SM SKC
     FM230400 VRB03KT P6SM SKC
     FM231200 VRB03KT 5SM BR BKN006
     FM231600 VRB03KT 6SM HZ FEW010=



000
FTUS46 KLOX 221400 AAA
TAFSBP
TAF AMD
KSBP 221401Z 2214/2312 VRB03KT P6SM SKC WS010/04030KT
     FM222000 34008KT P6SM SKC
     FM222200 32014G22KT P6SM SKC
     FM230200 32010KT P6SM SKC
     FM230600 VRB03KT P6SM SKC=



000
FTUS46 KLOX 221200 AAA
TAFSMX
TAF AMD
KSMX 221258Z 2213/2312 04012G20KT P6SM SKC
     FM221600 35010KT P6SM SKC
     FM222200 30014G22KT P6SM SKC
     FM230200 30010KT P6SM SKC
     FM230500 VRB03KT P6SM SKC=



000
FTUS46 KLOX 221100
TAFLAX
TAF
KLAX 221131Z 2212/2318 VRB03KT P6SM SKC
     FM221900 26010KT P6SM SKC
     FM230400 VRB03KT P6SM SKC
     FM231200 VRB03KT 5SM BR BKN006
     FM231600 VRB03KT 6SM HZ FEW010=



000
FTUS46 KLOX 221100
TAFPMD
TAF
KPMD 221131Z 2212/2312 VRB03KT P6SM SKC
     FM222000 31012KT P6SM SKC
     FM230500 VRB03KT P6SM SKC=



000
FTUS46 KLOX 221100
TAFVNY
TAF
KVNY 221131Z 2212/2312 VRB03KT P6SM SKC
     FM222100 14007KT P6SM SKC
     FM230200 VRB03KT P6SM SKC=



000
FTUS46 KLOX 221100
TAFSBP
TAF
KSBP 221131Z 2212/2312 VRB03KT P6SM SKC
     FM222000 34008KT P6SM SKC
     FM222200 32014G22KT P6SM SKC
     FM230200 32010KT P6SM SKC
     FM230600 VRB03KT P6SM SKC=



000
FTUS46 KLOX 221100
TAFBUR
TAF
KBUR 221131Z 2212/2312 VRB03KT P6SM SKC
     FM222000 17008KT P6SM SKC
     FM230200 VRB03KT P6SM SKC=



000
FTUS46 KLOX 221100
TAFSBA
TAF
KSBA 221131Z 2212/2312 VRB03KT P6SM SKC
     FM221900 16007KT P6SM SKC
     FM222300 24008KT P6SM SKC
     FM230200 VRB03KT P6SM SKC=



000
FTUS46 KLOX 221100
TAFLGB
TAF
KLGB 221131Z 2212/2312 VRB03KT P6SM SKC
     FM222000 19007KT P6SM SKC
     FM222300 29008KT P6SM SKC
     FM230300 VRB03KT P6SM SKC
     FM231100 VRB03KT P6SM BKN008=



000
FTUS46 KLOX 221100
TAFPRB
TAF
KPRB 221131Z 2212/2312 VRB03KT P6SM SKC
     FM222200 10008KT P6SM SKC
     FM230200 32008KT P6SM SKC
     FM230700 VRB03KT P6SM SKC=



000
FTUS46 KLOX 221100
TAFWJF
TAF
KWJF 221131Z 2212/2312 VRB05KT P6SM SKC
     FM222000 29014KT P6SM SKC
     FM230500 30008KT P6SM SKC=



000
FTUS46 KLOX 221100
TAFSMX
TAF
KSMX 221131Z 2212/2312 01010KT P6SM SKC
     FM222200 30014G22KT P6SM SKC
     FM230200 30010KT P6SM SKC
     FM230500 VRB03KT P6SM SKC=



000
FTUS46 KLOX 220800 AAA
TAFLAX
TAF AMD
KLAX 220850Z 2209/2312 VRB03KT P6SM SKC
     FM221900 26010KT P6SM SKC
     FM230400 VRB03KT P6SM SKC=



000
FTUS46 KLOX 220500
TAFLAX
TAF
KLAX 220526Z 2206/2312 VRB03KT P6SM SKC
     FM221900 26010KT P6SM SKC
     FM230400 VRB03KT P6SM SKC=



000
FTUS46 KLOX 220500
TAFBUR
TAF
KBUR 220526Z 2206/2306 VRB03KT P6SM SKC
     FM222000 17008KT P6SM SKC
     FM230200 VRB03KT P6SM SKC=



000
FTUS46 KLOX 220500
TAFPMD
TAF
KPMD 220526Z 2206/2306 29010KT P6SM SKC
     FM221300 VRB03KT P6SM SKC
     FM222000 31012KT P6SM SKC
     FM230500 VRB03KT P6SM SKC=



000
FTUS46 KLOX 220500
TAFPRB
TAF
KPRB 220526Z 2206/2306 VRB03KT P6SM SKC
     FM222200 10008KT P6SM SKC
     FM230200 32008KT P6SM SKC=



000
FTUS46 KLOX 220500
TAFWJF
TAF
KWJF 220526Z 2206/2306 28014KT P6SM SKC
     FM221200 VRB05KT P6SM SKC
     FM222000 29014KT P6SM SKC
     FM230500 30008KT P6SM SKC=



000
FTUS46 KLOX 220500
TAFSBP
TAF
KSBP 220526Z 2206/2306 32008KT P6SM SKC
     FM220800 VRB03KT P6SM SKC
     FM222000 34008KT P6SM SKC
     FM222200 32014G22KT P6SM SKC
     FM230200 32010KT P6SM SKC=



000
FTUS46 KLOX 220500
TAFVNY
TAF
KVNY 220526Z 2206/2306 VRB03KT P6SM SKC
     FM222100 14007KT P6SM SKC
     FM230200 VRB03KT P6SM SKC=



000
FTUS46 KLOX 220500
TAFSMX
TAF
KSMX 220526Z 2206/2306 30008KT P6SM SKC
     FM220800 VRB03KT P6SM SKC
     FM221600 01010KT P6SM SKC
     FM222200 30014G22KT P6SM SKC
     FM230200 30010KT P6SM SKC=



000
FTUS46 KLOX 220500
TAFLGB
TAF
KLGB 220526Z 2206/2306 VRB03KT P6SM SKC
     FM222000 19007KT P6SM SKC
     FM222300 29008KT P6SM SKC
     FM230300 VRB03KT P6SM SKC=



000
FTUS46 KLOX 220500
TAFSBA
TAF
KSBA 220526Z 2206/2306 VRB03KT P6SM SKC
     FM221900 16007KT P6SM SKC
     FM222300 24008KT P6SM SKC
     FM230200 VRB03KT P6SM SKC=



000
FTUS46 KLOX 220500
TAFLAX
TAF
KLAX 220526Z 2206/2312 VRB03KT P6SM SKC
     FM221900 26010KT P6SM SKC
     FM230400 VRB03KT P6SM SKC=



000
FTUS46 KLOX 220500
TAFVNY
TAF
KVNY 220526Z 2206/2306 VRB03KT P6SM SKC
     FM222100 14007KT P6SM SKC
     FM230200 VRB03KT P6SM SKC=



000
FTUS46 KLOX 220500
TAFSBP
TAF
KSBP 220526Z 2206/2306 32008KT P6SM SKC
     FM220800 VRB03KT P6SM SKC
     FM222000 34008KT P6SM SKC
     FM222200 32014G22KT P6SM SKC
     FM230200 32010KT P6SM SKC=



000
FTUS46 KLOX 220500
TAFWJF
TAF
KWJF 220526Z 2206/2306 28014KT P6SM SKC
     FM221200 VRB05KT P6SM SKC
     FM222000 29014KT P6SM SKC
     FM230500 30008KT P6SM SKC=



000
FTUS46 KLOX 220500
TAFPRB
TAF
KPRB 220526Z 2206/2306 VRB03KT P6SM SKC
     FM222200 10008KT P6SM SKC
     FM230200 32008KT P6SM SKC=



000
FTUS46 KLOX 220500
TAFPMD
TAF
KPMD 220526Z 2206/2306 29010KT P6SM SKC
     FM221300 VRB03KT P6SM SKC
     FM222000 31012KT P6SM SKC
     FM230500 VRB03KT P6SM SKC=



000
FTUS46 KLOX 220500
TAFBUR
TAF
KBUR 220526Z 2206/2306 VRB03KT P6SM SKC
     FM222000 17008KT P6SM SKC
     FM230200 VRB03KT P6SM SKC=



000
FTUS46 KLOX 220500
TAFLGB
TAF
KLGB 220526Z 2206/2306 VRB03KT P6SM SKC
     FM222000 19007KT P6SM SKC
     FM222300 29008KT P6SM SKC
     FM230300 VRB03KT P6SM SKC=



000
FTUS46 KLOX 220500
TAFSBA
TAF
KSBA 220526Z 2206/2306 VRB03KT P6SM SKC
     FM221900 16007KT P6SM SKC
     FM222300 24008KT P6SM SKC
     FM230200 VRB03KT P6SM SKC=



000
FTUS46 KLOX 220500
TAFSMX
TAF
KSMX 220526Z 2206/2306 30008KT P6SM SKC
     FM220800 VRB03KT P6SM SKC
     FM221600 01010KT P6SM SKC
     FM222200 30014G22KT P6SM SKC
     FM230200 30010KT P6SM SKC=



000
FTUS46 KLOX 220000 AAA
TAFSMX
TAF AMD
KSMX 220045Z 2201/2224 29015G22KT P6SM SKC
     FM220300 31008KT P6SM SKC
     FM220700 VRB04KT P6SM SKC
     FM221200 02008KT P6SM SKC
     FM221700 33008KT P6SM SKC
     FM222100 32014G22KT P6SM SKC=



000
FTUS46 KLOX 220000 AAA
TAFLAX
TAF AMD
KLAX 220045Z 2201/2306 26011KT P6SM SCT150
     FM220400 VRB03KT P6SM SKC
     FM221000 VRB03KT 5SM BR SCT006
     FM221600 26005KT P6SM SKC
     FM222000 26012KT P6SM SKC
     FM230300 26006KT P6SM SKC=



000
FTUS46 KLOX 212300 RRA
TAFLGB
TAF
KLGB 212345Z 2200/2224 29010KT P6SM SKC
     FM220400 VRB03KT P6SM SKC
     FM221100 VRB03KT 5SM BR BKN007
     FM221600 VRB03KT P6SM SKC
     FM222000 21007KT P6SM SKC
     FM222300 29008KT P6SM SKC=



000
FTUS46 KLOX 212300 RRA
TAFBUR
TAF
KBUR 212345Z 2200/2224 18008KT P6SM SKC
     FM220300 VRB03KT P6SM SKC
     FM222000 18008KT P6SM SKC=



000
FTUS46 KLOX 212300 RRA
TAFPMD
TAF
KPMD 212345Z 2200/2224 31014KT P6SM SKC
     FM220300 26010KT P6SM SKC
     FM221300 VRB04KT P6SM SKC
     FM222000 02005KT P6SM SKC=



000
FTUS46 KLOX 212300 RRA
TAFSBP
TAF
KSBP 212345Z 2200/2224 33015G22KT P6SM SKC
     FM220300 31008KT P6SM SKC
     FM220700 VRB04KT P6SM SKC
     FM222000 31014G22KT P6SM SKC=



000
FTUS46 KLOX 212300 RRA
TAFLAX
TAF
KLAX 212345Z 2200/2306 26011KT P6SM SCT150
     FM220400 VRB03KT P6SM SKC
     FM221000 VRB03KT P6SM SCT010
     FM221600 26005KT P6SM SKC
     FM222000 26012KT P6SM SKC
     FM230300 26006KT P6SM SKC=



000
FTUS46 KLOX 212300 RRA
TAFWJF
TAF
KWJF 212345Z 2200/2224 28020KT P6SM SKC
     FM220300 26015KT P6SM SKC
     FM221200 VRB05KT P6SM SKC
     FM222100 33006KT P6SM SKC=



000
FTUS46 KLOX 212300 RRA
TAFSBA
TAF
KSBA 212345Z 2200/2224 24008KT P6SM SKC
     FM220100 VRB03KT P6SM SKC WS015/36025KT
     FM220600 VRB03KT P6SM SKC
     FM221900 20006KT P6SM SKC
     FM222300 24008KT P6SM SKC=



000
FTUS46 KLOX 212300 RRA
TAFPRB
TAF
KPRB 212345Z 2200/2224 VRB03KT P6SM SKC
     FM220500 VRB03KT P6SM SKC
     FM222100 05007KT P6SM SKC=



000
FTUS46 KLOX 212300 RRA
TAFSMX
TAF
KSMX 212345Z 2200/2224 32018G26KT P6SM SKC
     FM220300 31008KT P6SM SKC
     FM220700 VRB04KT P6SM SKC
     FM221200 02008KT P6SM SKC
     FM221700 33008KT P6SM SKC
     FM222100 32014G22KT P6SM SKC=



000
FTUS46 KLOX 212300 RRA
TAFVNY
TAF
KVNY 212345Z 2200/2224 13006KT P6SM SKC
     FM220300 VRB03KT P6SM SKC
     FM222100 16007KT P6SM SKC=



000
FTUS46 KLOX 212300 RRA
TAFWJF
TAF
KWJF 212345Z 2200/2224 28020KT P6SM SKC
     FM220300 26015KT P6SM SKC
     FM221200 VRB05KT P6SM SKC
     FM222100 33006KT P6SM SKC=



000
FTUS46 KLOX 212300 RRA
TAFPMD
TAF
KPMD 212345Z 2200/2224 31014KT P6SM SKC
     FM220300 26010KT P6SM SKC
     FM221300 VRB04KT P6SM SKC
     FM222000 02005KT P6SM SKC=



000
FTUS46 KLOX 212300 RRA
TAFPRB
TAF
KPRB 212345Z 2200/2224 VRB03KT P6SM SKC
     FM220500 VRB03KT P6SM SKC
     FM222100 05007KT P6SM SKC=



000
FTUS46 KLOX 212300 RRA
TAFLGB
TAF
KLGB 212345Z 2200/2224 29010KT P6SM SKC
     FM220400 VRB03KT P6SM SKC
     FM221100 VRB03KT 5SM BR BKN007
     FM221600 VRB03KT P6SM SKC
     FM222000 21007KT P6SM SKC
     FM222300 29008KT P6SM SKC=



000
FTUS46 KLOX 212300 RRA
TAFSBP
TAF
KSBP 212345Z 2200/2224 33015G22KT P6SM SKC
     FM220300 31008KT P6SM SKC
     FM220700 VRB04KT P6SM SKC
     FM222000 31014G22KT P6SM SKC=



000
FTUS46 KLOX 212300 RRA
TAFBUR
TAF
KBUR 212345Z 2200/2224 18008KT P6SM SKC
     FM220300 VRB03KT P6SM SKC
     FM222000 18008KT P6SM SKC=



000
FTUS46 KLOX 212300 RRA
TAFSBA
TAF
KSBA 212345Z 2200/2224 24008KT P6SM SKC
     FM220100 VRB03KT P6SM SKC WS015/36025KT
     FM220600 VRB03KT P6SM SKC
     FM221900 20006KT P6SM SKC
     FM222300 24008KT P6SM SKC=



000
FTUS46 KLOX 212300 RRA
TAFSMX
TAF
KSMX 212345Z 2200/2224 32018G26KT P6SM SKC
     FM220300 31008KT P6SM SKC
     FM220700 VRB04KT P6SM SKC
     FM221200 02008KT P6SM SKC
     FM221700 33008KT P6SM SKC
     FM222100 32014G22KT P6SM SKC=



000
FTUS46 KLOX 212300 RRA
TAFVNY
TAF
KVNY 212345Z 2200/2224 13006KT P6SM SKC
     FM220300 VRB03KT P6SM SKC
     FM222100 16007KT P6SM SKC=



000
FTUS46 KLOX 212300 RRA
TAFLAX
TAF
KLAX 212345Z 2200/2306 26011KT P6SM SCT150
     FM220400 VRB03KT P6SM SKC
     FM221000 VRB03KT P6SM SCT010
     FM221600 26005KT P6SM SKC
     FM222000 26012KT P6SM SKC
     FM230300 26006KT P6SM SKC=



000
FTUS46 KLOX 212200 AAC
TAFSMX
TAF AMD
KSMX 212201Z 2122/2218 29020KT P6SM SKC
     FM212300 32018G26KT P6SM SKC
     FM220300 31008KT P6SM SKC
     FM220700 VRB03KT P6SM SKC=



000
FTUS46 KLOX 212200 AAB
TAFSBP
TAF AMD
KSBP 212201Z 2122/2218 33016G22KT P6SM SKC
     FM220300 31008KT P6SM SKC
     FM220700 VRB03KT P6SM SKC=



000
FTUS46 KLOX 212200 AAC
TAFSMX
TAF AMD
KSMX 212201Z 2122/2218 29020KT P6SM SKC
     FM212300 32018G26KT P6SM SKC
     FM220300 31008KT P6SM SKC
     FM220700 VRB03KT P6SM SKC=



000
FTUS46 KLOX 212200 AAB
TAFSBP
TAF AMD
KSBP 212201Z 2122/2218 33016G22KT P6SM SKC
     FM220300 31008KT P6SM SKC
     FM220700 VRB03KT P6SM SKC=



000
FTUS46 KLOX 212100 AAC
TAFLAX
TAF AMD
KLAX 212159Z 2122/2224 26012KT P6SM FEW050 SCT060 BKN180 BKN250
     FM220000 26012KT P6SM FEW250
     FM220400 VRB03KT P6SM SKC
     FM221000 VRB03KT 5SM BR BKN005
     FM221600 26005KT P6SM SKC
     FM222000 26010KT P6SM SKC=



000
FTUS46 KLOX 212100 AAC
TAFLAX
TAF AMD
KLAX 212159Z 2122/2224 26012KT P6SM FEW050 SCT060 BKN180 BKN250
     FM220000 26012KT P6SM FEW250
     FM220400 VRB03KT P6SM SKC
     FM221000 VRB03KT 5SM BR BKN005
     FM221600 26005KT P6SM SKC
     FM222000 26010KT P6SM SKC=



000
FTUS46 KLOX 212100 AAB
TAFLAX
TAF AMD
KLAX 212157Z 2122/2224 26012KT P6SM FEW200
     FM220400 VRB03KT P6SM SKC
     FM221000 VRB03KT 5SM BR BKN005
     FM221600 26005KT P6SM SKC
     FM222000 26010KT P6SM SKC=



000
FTUS46 KLOX 212100 AAB
TAFLAX
TAF AMD
KLAX 212157Z 2122/2224 26012KT P6SM FEW200
     FM220400 VRB03KT P6SM SKC
     FM221000 VRB03KT 5SM BR BKN005
     FM221600 26005KT P6SM SKC
     FM222000 26010KT P6SM SKC=



000
FTUS46 KLOX 212000 AAA
TAFLAX
TAF AMD
KLAX 212052Z 2121/2224 25010KT P6SM SCT180 BKN200
     FM220400 VRB03KT P6SM SKC
     FM221000 VRB03KT 5SM BR BKN005
     FM221600 26005KT P6SM SKC
     FM222000 26010KT P6SM SKC=



000
FTUS46 KLOX 212000 AAB
TAFSMX
TAF AMD
KSMX 212048Z 2121/2218 03020G24KT P6SM SKC
     FM212300 32015G22KT P6SM SKC
     FM220300 31008KT P6SM SKC
     FM220700 VRB03KT P6SM SKC=



000
FTUS46 KLOX 212000 AAA
TAFSBP
TAF AMD
KSBP 212048Z 2121/2218 34010KT P6SM SCT200
     FM212200 32015G22KT P6SM SCT200
     FM220300 31008KT P6SM SKC
     FM220700 VRB03KT P6SM SKC=



    US Dept of Commerce
    National Oceanic and Atmospheric Administration
    National Weather Service
    1325 East West Highway
    Silver Spring, MD 20910
    Page Author: NWS Internet Services Team
Disclaimer
Information Quality
Credits
Glossary
Privacy Policy
Freedom of Information Act (FOIA)
About Us
Career Opportunities